sensor_id;sensor_type;location;lat;lon;timestamp;P1;P2;P0
73517;PMS5003;61766;60.318;25.044;2023-05-10T00:02:21;13;13;
73517;PMS5003;61766;60.318;25.044;2023-05-10T00:04:46;11;10;
73517;PMS5003;61766;60.318;25.044;2023-05-10T00:07:12;12;12;
73517;PMS5003;61766;60.318;25.044;2023-05-10T00:09:37;10;9;
73517;PMS5003;61766;60.318;25.044;2023-05-10T00:12:02;12;11;
73517;PMS5003;61766;60.318;25.044;2023-05-10T00:14:27;13;12;
73517;PMS5003;61766;60.318;25.044;2023-05-10T00:16:53;15;14;
73517;PMS5003;61766;60.318;25.044;2023-05-10T00:19:18;10;10;
73517;PMS5003;61766;60.318;25.044;2023-05-10T00:21:43;10;10;
73517;PMS5003;61766;60.318;25.044;2023-05-10T00:24:09;10;9;
73517;PMS5003;61766;60.318;25.044;2023-05-10T00:26:34;13;12;
73517;PMS5003;61766;60.318;25.044;2023-05-10T00:29:00;12;11;
73517;PMS5003;61766;60.318;25.044;2023-05-10T00:31:25;15;14;
73517;PMS5003;61766;60.318;25.044;2023-05-10T00:33:50;11;11;
73517;PMS5003;61766;60.318;25.044;2023-05-10T00:36:16;14;14;
73517;PMS5003;61766;60.318;25.044;2023-05-10T00:38:42;12;12;
73517;PMS5003;61766;60.318;25.044;2023-05-10T00:41:07;11;11;
73517;PMS5003;61766;60.318;25.044;2023-05-10T00:43:33;11;11;
73517;PMS5003;61766;60.318;25.044;2023-05-10T00:45:58;14;13;
73517;PMS5003;61766;60.318;25.044;2023-05-10T00:48:23;11;11;
73517;PMS5003;61766;60.318;25.044;2023-05-10T00:50:49;12;11;
73517;PMS5003;61766;60.318;25.044;2023-05-10T00:53:15;14;12;
73517;PMS5003;61766;60.318;25.044;2023-05-10T00:55:40;14;14;
73517;PMS5003;61766;60.318;25.044;2023-05-10T00:58:06;9;9;
73517;PMS5003;61766;60.318;25.044;2023-05-10T01:00:32;11;10;
73517;PMS5003;61766;60.318;25.044;2023-05-10T01:02:56;13;12;
73517;PMS5003;61766;60.318;25.044;2023-05-10T01:05:21;12;10;
73517;PMS5003;61766;60.318;25.044;2023-05-10T01:07:47;12;12;
73517;PMS5003;61766;60.318;25.044;2023-05-10T01:10:13;12;12;
73517;PMS5003;61766;60.318;25.044;2023-05-10T01:12:39;11;11;
73517;PMS5003;61766;60.318;25.044;2023-05-10T01:15:04;11;11;
73517;PMS5003;61766;60.318;25.044;2023-05-10T01:17:28;14;12;
73517;PMS5003;61766;60.318;25.044;2023-05-10T01:19:53;12;12;
73517;PMS5003;61766;60.318;25.044;2023-05-10T01:22:25;15;15;
73517;PMS5003;61766;60.318;25.044;2023-05-10T01:27:18;13;12;
73517;PMS5003;61766;60.318;25.044;2023-05-10T01:29:43;12;11;
73517;PMS5003;61766;60.318;25.044;2023-05-10T01:32:10;12;12;
73517;PMS5003;61766;60.318;25.044;2023-05-10T01:34:27;14;14;
73517;PMS5003;61766;60.318;25.044;2023-05-10T01:36:53;14;12;
73517;PMS5003;61766;60.318;25.044;2023-05-10T01:39:18;11;11;
73517;PMS5003;61766;60.318;25.044;2023-05-10T01:41:44;10;10;
73517;PMS5003;61766;60.318;25.044;2023-05-10T01:44:10;13;12;
73517;PMS5003;61766;60.318;25.044;2023-05-10T01:46:34;14;14;
73517;PMS5003;61766;60.318;25.044;2023-05-10T01:48:58;12;12;
73517;PMS5003;61766;60.318;25.044;2023-05-10T01:51:23;11;10;
73517;PMS5003;61766;60.318;25.044;2023-05-10T01:53:48;13;12;
73517;PMS5003;61766;60.318;25.044;2023-05-10T01:56:13;13;13;
73517;PMS5003;61766;60.318;25.044;2023-05-10T01:58:39;12;12;
73517;PMS5003;61766;60.318;25.044;2023-05-10T02:01:04;12;12;
73517;PMS5003;61766;60.318;25.044;2023-05-10T02:03:30;14;14;
73517;PMS5003;61766;60.318;25.044;2023-05-10T02:05:54;14;13;
73517;PMS5003;61766;60.318;25.044;2023-05-10T02:08:20;14;14;
73517;PMS5003;61766;60.318;25.044;2023-05-10T02:10:45;12;12;
73517;PMS5003;61766;60.318;25.044;2023-05-10T02:13:10;14;13;
73517;PMS5003;61766;60.318;25.044;2023-05-10T02:15:36;11;11;
73517;PMS5003;61766;60.318;25.044;2023-05-10T02:18:02;12;12;
73517;PMS5003;61766;60.318;25.044;2023-05-10T02:20:27;14;13;
73517;PMS5003;61766;60.318;25.044;2023-05-10T02:22:53;12;12;
73517;PMS5003;61766;60.318;25.044;2023-05-10T02:25:18;15;14;
73517;PMS5003;61766;60.318;25.044;2023-05-10T02:27:42;10;10;
73517;PMS5003;61766;60.318;25.044;2023-05-10T02:30:08;13;12;
73517;PMS5003;61766;60.318;25.044;2023-05-10T02:32:33;17;14;
73517;PMS5003;61766;60.318;25.044;2023-05-10T02:34:59;12;12;
73517;PMS5003;61766;60.318;25.044;2023-05-10T02:37:24;13;13;
73517;PMS5003;61766;60.318;25.044;2023-05-10T02:39:50;13;13;
73517;PMS5003;61766;60.318;25.044;2023-05-10T02:42:16;10;10;
73517;PMS5003;61766;60.318;25.044;2023-05-10T02:44:40;10;10;
73517;PMS5003;61766;60.318;25.044;2023-05-10T02:47:06;13;11;
73517;PMS5003;61766;60.318;25.044;2023-05-10T02:49:31;11;10;
73517;PMS5003;61766;60.318;25.044;2023-05-10T02:51:58;10;10;
73517;PMS5003;61766;60.318;25.044;2023-05-10T02:54:24;13;13;
73517;PMS5003;61766;60.318;25.044;2023-05-10T02:56:47;12;11;
73517;PMS5003;61766;60.318;25.044;2023-05-10T02:59:12;15;13;
73517;PMS5003;61766;60.318;25.044;2023-05-10T03:01:37;14;12;
73517;PMS5003;61766;60.318;25.044;2023-05-10T03:04:02;13;12;
73517;PMS5003;61766;60.318;25.044;2023-05-10T03:06:27;14;13;
73517;PMS5003;61766;60.318;25.044;2023-05-10T03:08:52;12;11;
73517;PMS5003;61766;60.318;25.044;2023-05-10T03:11:24;12;12;
73517;PMS5003;61766;60.318;25.044;2023-05-10T03:13:44;11;10;
73517;PMS5003;61766;60.318;25.044;2023-05-10T03:16:10;13;13;
73517;PMS5003;61766;60.318;25.044;2023-05-10T03:18:36;14;14;
73517;PMS5003;61766;60.318;25.044;2023-05-10T03:21:01;13;13;
73517;PMS5003;61766;60.318;25.044;2023-05-10T03:23:26;12;11;
73517;PMS5003;61766;60.318;25.044;2023-05-10T03:25:50;13;12;
73517;PMS5003;61766;60.318;25.044;2023-05-10T03:28:16;14;12;
73517;PMS5003;61766;60.318;25.044;2023-05-10T03:30:40;14;14;
73517;PMS5003;61766;60.318;25.044;2023-05-10T03:33:06;11;11;
73517;PMS5003;61766;60.318;25.044;2023-05-10T03:35:31;13;12;
73517;PMS5003;61766;60.318;25.044;2023-05-10T03:37:56;12;11;
73517;PMS5003;61766;60.318;25.044;2023-05-10T03:40:21;12;12;
73517;PMS5003;61766;60.318;25.044;2023-05-10T03:42:47;15;15;
73517;PMS5003;61766;60.318;25.044;2023-05-10T03:45:12;13;11;
73517;PMS5003;61766;60.318;25.044;2023-05-10T03:47:37;15;12;
73517;PMS5003;61766;60.318;25.044;2023-05-10T03:50:03;10;10;
73517;PMS5003;61766;60.318;25.044;2023-05-10T03:52:28;11;11;
73517;PMS5003;61766;60.318;25.044;2023-05-10T03:54:53;20;18;
73517;PMS5003;61766;60.318;25.044;2023-05-10T03:57:19;17;16;
73517;PMS5003;61766;60.318;25.044;2023-05-10T03:59:44;17;16;
73517;PMS5003;61766;60.318;25.044;2023-05-10T04:02:10;14;13;
73517;PMS5003;61766;60.318;25.044;2023-05-10T04:04:35;17;15;
73517;PMS5003;61766;60.318;25.044;2023-05-10T04:07:01;15;15;
73517;PMS5003;61766;60.318;25.044;2023-05-10T04:09:26;14;14;
73517;PMS5003;61766;60.318;25.044;2023-05-10T04:11:52;14;14;
73517;PMS5003;61766;60.318;25.044;2023-05-10T04:14:18;15;14;
73517;PMS5003;61766;60.318;25.044;2023-05-10T04:16:44;15;14;
73517;PMS5003;61766;60.318;25.044;2023-05-10T04:19:09;13;13;
73517;PMS5003;61766;60.318;25.044;2023-05-10T04:21:34;12;11;
73517;PMS5003;61766;60.318;25.044;2023-05-10T04:23:59;15;15;
73517;PMS5003;61766;60.318;25.044;2023-05-10T04:26:25;15;15;
73517;PMS5003;61766;60.318;25.044;2023-05-10T04:28:50;16;15;
73517;PMS5003;61766;60.318;25.044;2023-05-10T04:31:16;13;12;
73517;PMS5003;61766;60.318;25.044;2023-05-10T04:33:41;17;17;
73517;PMS5003;61766;60.318;25.044;2023-05-10T04:36:07;17;15;
73517;PMS5003;61766;60.318;25.044;2023-05-10T04:38:32;18;18;
73517;PMS5003;61766;60.318;25.044;2023-05-10T04:41:03;17;16;
73517;PMS5003;61766;60.318;25.044;2023-05-10T04:43:24;18;17;
73517;PMS5003;61766;60.318;25.044;2023-05-10T04:45:49;15;15;
73517;PMS5003;61766;60.318;25.044;2023-05-10T04:48:14;20;19;
73517;PMS5003;61766;60.318;25.044;2023-05-10T04:50:39;16;15;
73517;PMS5003;61766;60.318;25.044;2023-05-10T04:53:05;17;17;
73517;PMS5003;61766;60.318;25.044;2023-05-10T04:55:30;16;16;
73517;PMS5003;61766;60.318;25.044;2023-05-10T04:57:55;15;15;
73517;PMS5003;61766;60.318;25.044;2023-05-10T05:00:21;15;15;
73517;PMS5003;61766;60.318;25.044;2023-05-10T05:02:46;15;13;
73517;PMS5003;61766;60.318;25.044;2023-05-10T05:05:12;20;18;
73517;PMS5003;61766;60.318;25.044;2023-05-10T05:07:37;14;14;
73517;PMS5003;61766;60.318;25.044;2023-05-10T05:10:02;14;14;
73517;PMS5003;61766;60.318;25.044;2023-05-10T05:12:28;15;13;
73517;PMS5003;61766;60.318;25.044;2023-05-10T05:14:54;20;17;
73517;PMS5003;61766;60.318;25.044;2023-05-10T05:17:19;17;16;
73517;PMS5003;61766;60.318;25.044;2023-05-10T05:19:44;12;12;
73517;PMS5003;61766;60.318;25.044;2023-05-10T05:22:10;13;13;
73517;PMS5003;61766;60.318;25.044;2023-05-10T05:24:35;14;13;
73517;PMS5003;61766;60.318;25.044;2023-05-10T05:27:00;14;12;
73517;PMS5003;61766;60.318;25.044;2023-05-10T05:29:25;11;11;
73517;PMS5003;61766;60.318;25.044;2023-05-10T05:31:50;14;14;
73517;PMS5003;61766;60.318;25.044;2023-05-10T05:34:15;15;13;
73517;PMS5003;61766;60.318;25.044;2023-05-10T05:36:41;13;13;
73517;PMS5003;61766;60.318;25.044;2023-05-10T05:39:06;12;10;
73517;PMS5003;61766;60.318;25.044;2023-05-10T05:41:31;11;11;
73517;PMS5003;61766;60.318;25.044;2023-05-10T05:43:56;9;9;
73517;PMS5003;61766;60.318;25.044;2023-05-10T05:46:21;9;8;
73517;PMS5003;61766;60.318;25.044;2023-05-10T05:48:46;14;14;
73517;PMS5003;61766;60.318;25.044;2023-05-10T05:51:11;12;11;
73517;PMS5003;61766;60.318;25.044;2023-05-10T05:53:36;14;12;
73517;PMS5003;61766;60.318;25.044;2023-05-10T05:56:01;14;14;
73517;PMS5003;61766;60.318;25.044;2023-05-10T05:58:26;12;10;
73517;PMS5003;61766;60.318;25.044;2023-05-10T06:00:52;12;12;
73517;PMS5003;61766;60.318;25.044;2023-05-10T06:03:17;9;9;
73517;PMS5003;61766;60.318;25.044;2023-05-10T06:05:42;15;13;
73517;PMS5003;61766;60.318;25.044;2023-05-10T06:08:07;12;11;
73517;PMS5003;61766;60.318;25.044;2023-05-10T06:10:32;14;13;
73517;PMS5003;61766;60.318;25.044;2023-05-10T06:12:58;14;12;
73517;PMS5003;61766;60.318;25.044;2023-05-10T06:15:24;11;11;
73517;PMS5003;61766;60.318;25.044;2023-05-10T06:17:49;12;11;
73517;PMS5003;61766;60.318;25.044;2023-05-10T06:20:15;11;11;
73517;PMS5003;61766;60.318;25.044;2023-05-10T06:22:41;12;12;
73517;PMS5003;61766;60.318;25.044;2023-05-10T06:25:07;15;15;
73517;PMS5003;61766;60.318;25.044;2023-05-10T06:27:31;11;11;
73517;PMS5003;61766;60.318;25.044;2023-05-10T06:29:57;13;13;
73517;PMS5003;61766;60.318;25.044;2023-05-10T06:32:23;14;14;
73517;PMS5003;61766;60.318;25.044;2023-05-10T06:34:48;14;14;
73517;PMS5003;61766;60.318;25.044;2023-05-10T06:37:14;10;10;
73517;PMS5003;61766;60.318;25.044;2023-05-10T06:39:40;12;12;
73517;PMS5003;61766;60.318;25.044;2023-05-10T06:42:06;11;11;
73517;PMS5003;61766;60.318;25.044;2023-05-10T06:44:32;11;11;
73517;PMS5003;61766;60.318;25.044;2023-05-10T06:46:57;10;10;
73517;PMS5003;61766;60.318;25.044;2023-05-10T06:49:23;14;14;
73517;PMS5003;61766;60.318;25.044;2023-05-10T06:51:48;11;11;
73517;PMS5003;61766;60.318;25.044;2023-05-10T06:54:15;13;12;
73517;PMS5003;61766;60.318;25.044;2023-05-10T06:56:40;11;10;
73517;PMS5003;61766;60.318;25.044;2023-05-10T06:59:06;12;12;
73517;PMS5003;61766;60.318;25.044;2023-05-10T07:01:31;10;10;
73517;PMS5003;61766;60.318;25.044;2023-05-10T07:03:57;13;12;
73517;PMS5003;61766;60.318;25.044;2023-05-10T07:06:23;10;10;
73517;PMS5003;61766;60.318;25.044;2023-05-10T07:08:49;11;11;
73517;PMS5003;61766;60.318;25.044;2023-05-10T07:11:14;11;11;
73517;PMS5003;61766;60.318;25.044;2023-05-10T07:13:40;12;11;
73517;PMS5003;61766;60.318;25.044;2023-05-10T07:16:05;18;16;
73517;PMS5003;61766;60.318;25.044;2023-05-10T07:18:30;13;12;
73517;PMS5003;61766;60.318;25.044;2023-05-10T07:20:56;11;11;
73517;PMS5003;61766;60.318;25.044;2023-05-10T07:23:22;11;11;
73517;PMS5003;61766;60.318;25.044;2023-05-10T07:25:48;12;12;
73517;PMS5003;61766;60.318;25.044;2023-05-10T07:28:13;12;12;
73517;PMS5003;61766;60.318;25.044;2023-05-10T07:30:39;9;9;
73517;PMS5003;61766;60.318;25.044;2023-05-10T07:33:04;14;13;
73517;PMS5003;61766;60.318;25.044;2023-05-10T07:35:30;12;11;
73517;PMS5003;61766;60.318;25.044;2023-05-10T07:37:56;12;12;
73517;PMS5003;61766;60.318;25.044;2023-05-10T07:40:22;12;12;
73517;PMS5003;61766;60.318;25.044;2023-05-10T07:42:48;9;9;
73517;PMS5003;61766;60.318;25.044;2023-05-10T07:45:13;15;14;
73517;PMS5003;61766;60.318;25.044;2023-05-10T07:47:38;16;16;
73517;PMS5003;61766;60.318;25.044;2023-05-10T07:50:04;12;11;
73517;PMS5003;61766;60.318;25.044;2023-05-10T07:52:29;12;12;
73517;PMS5003;61766;60.318;25.044;2023-05-10T07:54:55;15;11;
73517;PMS5003;61766;60.318;25.044;2023-05-10T07:57:21;14;14;
73517;PMS5003;61766;60.318;25.044;2023-05-10T07:59:46;12;11;
73517;PMS5003;61766;60.318;25.044;2023-05-10T08:02:12;15;13;
73517;PMS5003;61766;60.318;25.044;2023-05-10T08:04:38;12;12;
73517;PMS5003;61766;60.318;25.044;2023-05-10T08:07:04;11;11;
73517;PMS5003;61766;60.318;25.044;2023-05-10T08:09:29;15;12;
73517;PMS5003;61766;60.318;25.044;2023-05-10T08:11:55;12;12;
73517;PMS5003;61766;60.318;25.044;2023-05-10T08:14:21;12;11;
73517;PMS5003;61766;60.318;25.044;2023-05-10T08:16:47;12;11;
73517;PMS5003;61766;60.318;25.044;2023-05-10T08:19:12;14;14;
73517;PMS5003;61766;60.318;25.044;2023-05-10T08:21:37;13;12;
73517;PMS5003;61766;60.318;25.044;2023-05-10T08:24:03;15;14;
73517;PMS5003;61766;60.318;25.044;2023-05-10T08:26:30;13;12;
73517;PMS5003;61766;60.318;25.044;2023-05-10T08:28:55;11;11;
73517;PMS5003;61766;60.318;25.044;2023-05-10T08:31:21;12;12;
73517;PMS5003;61766;60.318;25.044;2023-05-10T08:33:46;10;10;
73517;PMS5003;61766;60.318;25.044;2023-05-10T08:36:12;14;13;
73517;PMS5003;61766;60.318;25.044;2023-05-10T08:38:38;13;12;
73517;PMS5003;61766;60.318;25.044;2023-05-10T08:41:04;11;11;
73517;PMS5003;61766;60.318;25.044;2023-05-10T08:43:29;10;10;
73517;PMS5003;61766;60.318;25.044;2023-05-10T08:45:55;12;11;
73517;PMS5003;61766;60.318;25.044;2023-05-10T08:48:21;12;12;
73517;PMS5003;61766;60.318;25.044;2023-05-10T08:50:46;13;11;
73517;PMS5003;61766;60.318;25.044;2023-05-10T08:53:12;14;14;
73517;PMS5003;61766;60.318;25.044;2023-05-10T08:55:38;12;12;
73517;PMS5003;61766;60.318;25.044;2023-05-10T08:58:04;11;11;
73517;PMS5003;61766;60.318;25.044;2023-05-10T09:00:29;11;11;
73517;PMS5003;61766;60.318;25.044;2023-05-10T09:02:55;12;11;
73517;PMS5003;61766;60.318;25.044;2023-05-10T09:05:20;11;11;
73517;PMS5003;61766;60.318;25.044;2023-05-10T09:07:46;11;11;
73517;PMS5003;61766;60.318;25.044;2023-05-10T09:10:12;12;12;
73517;PMS5003;61766;60.318;25.044;2023-05-10T09:12:37;12;10;
73517;PMS5003;61766;60.318;25.044;2023-05-10T09:15:04;12;11;
73517;PMS5003;61766;60.318;25.044;2023-05-10T09:17:29;11;11;
73517;PMS5003;61766;60.318;25.044;2023-05-10T09:19:58;12;12;
73517;PMS5003;61766;60.318;25.044;2023-05-10T09:22:20;15;14;
73517;PMS5003;61766;60.318;25.044;2023-05-10T09:24:46;12;12;
73517;PMS5003;61766;60.318;25.044;2023-05-10T09:27:11;12;12;
73517;PMS5003;61766;60.318;25.044;2023-05-10T09:29:41;8;8;
73517;PMS5003;61766;60.318;25.044;2023-05-10T09:32:03;9;9;
73517;PMS5003;61766;60.318;25.044;2023-05-10T09:34:29;10;10;
73517;PMS5003;61766;60.318;25.044;2023-05-10T09:36:55;8;8;
73517;PMS5003;61766;60.318;25.044;2023-05-10T09:39:20;10;9;
73517;PMS5003;61766;60.318;25.044;2023-05-10T09:41:46;12;11;
73517;PMS5003;61766;60.318;25.044;2023-05-10T09:44:12;10;10;
73517;PMS5003;61766;60.318;25.044;2023-05-10T09:46:37;10;10;
73517;PMS5003;61766;60.318;25.044;2023-05-10T09:49:03;13;12;
73517;PMS5003;61766;60.318;25.044;2023-05-10T09:51:29;13;13;
73517;PMS5003;61766;60.318;25.044;2023-05-10T09:58:46;10;10;
73517;PMS5003;61766;60.318;25.044;2023-05-10T10:01:11;9;9;
73517;PMS5003;61766;60.318;25.044;2023-05-10T10:03:40;11;11;
73517;PMS5003;61766;60.318;25.044;2023-05-10T10:06:03;11;11;
73517;PMS5003;61766;60.318;25.044;2023-05-10T10:08:29;9;9;
73517;PMS5003;61766;60.318;25.044;2023-05-10T10:10:54;13;12;
73517;PMS5003;61766;60.318;25.044;2023-05-10T10:13:20;9;9;
73517;PMS5003;61766;60.318;25.044;2023-05-10T10:15:46;9;9;
73517;PMS5003;61766;60.318;25.044;2023-05-10T10:18:12;10;10;
73517;PMS5003;61766;60.318;25.044;2023-05-10T10:20:37;12;11;
73517;PMS5003;61766;60.318;25.044;2023-05-10T10:23:03;10;10;
73517;PMS5003;61766;60.318;25.044;2023-05-10T10:25:29;12;11;
73517;PMS5003;61766;60.318;25.044;2023-05-10T10:27:59;12;12;
73517;PMS5003;61766;60.318;25.044;2023-05-10T10:30:21;13;12;
73517;PMS5003;61766;60.318;25.044;2023-05-10T10:32:51;12;11;
73517;PMS5003;61766;60.318;25.044;2023-05-10T10:35:11;11;10;
73517;PMS5003;61766;60.318;25.044;2023-05-10T10:37:43;11;10;
73517;PMS5003;61766;60.318;25.044;2023-05-10T10:47:22;12;11;
73517;PMS5003;61766;60.318;25.044;2023-05-10T10:49:48;12;11;
73517;PMS5003;61766;60.318;25.044;2023-05-10T10:52:13;11;9;
73517;PMS5003;61766;60.318;25.044;2023-05-10T10:54:37;11;10;
73517;PMS5003;61766;60.318;25.044;2023-05-10T10:57:11;8;8;
73517;PMS5003;61766;60.318;25.044;2023-05-10T10:59:28;10;10;
73517;PMS5003;61766;60.318;25.044;2023-05-10T11:01:54;10;10;
73517;PMS5003;61766;60.318;25.044;2023-05-10T11:04:20;9;9;
73517;PMS5003;61766;60.318;25.044;2023-05-10T11:06:45;14;14;
73517;PMS5003;61766;60.318;25.044;2023-05-10T11:09:11;10;10;
73517;PMS5003;61766;60.318;25.044;2023-05-10T11:11:41;9;9;
73517;PMS5003;61766;60.318;25.044;2023-05-10T11:14:03;9;9;
73517;PMS5003;61766;60.318;25.044;2023-05-10T11:16:28;10;9;
73517;PMS5003;61766;60.318;25.044;2023-05-10T11:18:57;11;10;
73517;PMS5003;61766;60.318;25.044;2023-05-10T11:21:19;10;9;
73517;PMS5003;61766;60.318;25.044;2023-05-10T11:23:49;9;9;
73517;PMS5003;61766;60.318;25.044;2023-05-10T11:26:11;9;9;
73517;PMS5003;61766;60.318;25.044;2023-05-10T11:28:40;12;11;
73517;PMS5003;61766;60.318;25.044;2023-05-10T11:31:02;11;11;
73517;PMS5003;61766;60.318;25.044;2023-05-10T11:33:27;12;12;
73517;PMS5003;61766;60.318;25.044;2023-05-10T11:35:53;8;8;
73517;PMS5003;61766;60.318;25.044;2023-05-10T11:38:19;8;8;
73517;PMS5003;61766;60.318;25.044;2023-05-10T11:40:45;10;10;
73517;PMS5003;61766;60.318;25.044;2023-05-10T11:43:10;10;10;
73517;PMS5003;61766;60.318;25.044;2023-05-10T11:45:36;9;8;
73517;PMS5003;61766;60.318;25.044;2023-05-10T11:48:02;11;11;
73517;PMS5003;61766;60.318;25.044;2023-05-10T11:50:28;9;9;
73517;PMS5003;61766;60.318;25.044;2023-05-10T11:52:54;10;10;
73517;PMS5003;61766;60.318;25.044;2023-05-10T11:55:19;12;12;
73517;PMS5003;61766;60.318;25.044;2023-05-10T11:57:45;11;11;
73517;PMS5003;61766;60.318;25.044;2023-05-10T12:00:11;9;9;
73517;PMS5003;61766;60.318;25.044;2023-05-10T12:02:36;10;10;
73517;PMS5003;61766;60.318;25.044;2023-05-10T12:05:02;11;11;
73517;PMS5003;61766;60.318;25.044;2023-05-10T12:07:28;12;11;
73517;PMS5003;61766;60.318;25.044;2023-05-10T12:10:03;9;9;
73517;PMS5003;61766;60.318;25.044;2023-05-10T12:12:20;11;10;
73517;PMS5003;61766;60.318;25.044;2023-05-10T12:14:48;10;10;
73517;PMS5003;61766;60.318;25.044;2023-05-10T12:17:11;9;9;
73517;PMS5003;61766;60.318;25.044;2023-05-10T12:19:37;11;10;
73517;PMS5003;61766;60.318;25.044;2023-05-10T12:22:04;10;10;
73517;PMS5003;61766;60.318;25.044;2023-05-10T12:24:28;10;10;
73517;PMS5003;61766;60.318;25.044;2023-05-10T12:26:54;10;10;
73517;PMS5003;61766;60.318;25.044;2023-05-10T12:29:19;11;11;
73517;PMS5003;61766;60.318;25.044;2023-05-10T12:31:50;11;11;
73517;PMS5003;61766;60.318;25.044;2023-05-10T12:34:11;11;10;
73517;PMS5003;61766;60.318;25.044;2023-05-10T12:36:38;10;10;
73517;PMS5003;61766;60.318;25.044;2023-05-10T12:39:03;11;10;
73517;PMS5003;61766;60.318;25.044;2023-05-10T12:41:28;13;12;
73517;PMS5003;61766;60.318;25.044;2023-05-10T12:43:53;11;10;
73517;PMS5003;61766;60.318;25.044;2023-05-10T12:46:19;11;10;
73517;PMS5003;61766;60.318;25.044;2023-05-10T12:48:45;10;10;
73517;PMS5003;61766;60.318;25.044;2023-05-10T12:51:11;11;11;
73517;PMS5003;61766;60.318;25.044;2023-05-10T12:53:37;11;11;
73517;PMS5003;61766;60.318;25.044;2023-05-10T12:56:02;8;8;
73517;PMS5003;61766;60.318;25.044;2023-05-10T12:58:28;12;11;
73517;PMS5003;61766;60.318;25.044;2023-05-10T13:00:53;9;9;
73517;PMS5003;61766;60.318;25.044;2023-05-10T13:03:19;10;9;
73517;PMS5003;61766;60.318;25.044;2023-05-10T13:05:45;10;9;
73517;PMS5003;61766;60.318;25.044;2023-05-10T13:08:11;11;10;
73517;PMS5003;61766;60.318;25.044;2023-05-10T13:10:36;11;10;
73517;PMS5003;61766;60.318;25.044;2023-05-10T13:13:02;9;9;
73517;PMS5003;61766;60.318;25.044;2023-05-10T13:15:28;11;11;
73517;PMS5003;61766;60.318;25.044;2023-05-10T13:17:54;8;8;
73517;PMS5003;61766;60.318;25.044;2023-05-10T13:20:19;9;9;
73517;PMS5003;61766;60.318;25.044;2023-05-10T13:22:45;9;9;
73517;PMS5003;61766;60.318;25.044;2023-05-10T13:25:11;12;11;
73517;PMS5003;61766;60.318;25.044;2023-05-10T13:27:37;11;11;
73517;PMS5003;61766;60.318;25.044;2023-05-10T13:30:03;11;10;
73517;PMS5003;61766;60.318;25.044;2023-05-10T13:32:28;11;10;
73517;PMS5003;61766;60.318;25.044;2023-05-10T13:34:54;10;10;
73517;PMS5003;61766;60.318;25.044;2023-05-10T13:37:20;12;11;
73517;PMS5003;61766;60.318;25.044;2023-05-10T13:39:45;11;10;
73517;PMS5003;61766;60.318;25.044;2023-05-10T13:42:11;11;10;
73517;PMS5003;61766;60.318;25.044;2023-05-10T13:44:37;9;9;
73517;PMS5003;61766;60.318;25.044;2023-05-10T13:47:03;10;10;
73517;PMS5003;61766;60.318;25.044;2023-05-10T13:49:28;11;10;
73517;PMS5003;61766;60.318;25.044;2023-05-10T13:51:54;14;13;
73517;PMS5003;61766;60.318;25.044;2023-05-10T13:54:19;9;9;
73517;PMS5003;61766;60.318;25.044;2023-05-10T13:56:45;8;8;
73517;PMS5003;61766;60.318;25.044;2023-05-10T13:59:11;9;8;
73517;PMS5003;61766;60.318;25.044;2023-05-10T14:01:36;8;8;
73517;PMS5003;61766;60.318;25.044;2023-05-10T14:04:01;9;9;
73517;PMS5003;61766;60.318;25.044;2023-05-10T14:06:27;9;9;
73517;PMS5003;61766;60.318;25.044;2023-05-10T14:08:53;11;10;
73517;PMS5003;61766;60.318;25.044;2023-05-10T14:11:19;9;9;
73517;PMS5003;61766;60.318;25.044;2023-05-10T14:13:45;11;11;
73517;PMS5003;61766;60.318;25.044;2023-05-10T14:16:10;10;10;
73517;PMS5003;61766;60.318;25.044;2023-05-10T14:18:36;10;10;
73517;PMS5003;61766;60.318;25.044;2023-05-10T14:21:02;9;9;
73517;PMS5003;61766;60.318;25.044;2023-05-10T14:23:27;11;10;
73517;PMS5003;61766;60.318;25.044;2023-05-10T14:25:53;12;10;
73517;PMS5003;61766;60.318;25.044;2023-05-10T14:28:19;11;11;
73517;PMS5003;61766;60.318;25.044;2023-05-10T14:30:45;11;10;
73517;PMS5003;61766;60.318;25.044;2023-05-10T14:33:10;9;9;
73517;PMS5003;61766;60.318;25.044;2023-05-10T14:35:36;10;10;
73517;PMS5003;61766;60.318;25.044;2023-05-10T14:38:02;10;10;
73517;PMS5003;61766;60.318;25.044;2023-05-10T14:40:28;9;7;
73517;PMS5003;61766;60.318;25.044;2023-05-10T14:42:53;8;8;
73517;PMS5003;61766;60.318;25.044;2023-05-10T14:45:19;9;9;
73517;PMS5003;61766;60.318;25.044;2023-05-10T14:47:45;9;9;
73517;PMS5003;61766;60.318;25.044;2023-05-10T14:50:11;10;10;
73517;PMS5003;61766;60.318;25.044;2023-05-10T14:52:36;9;9;
73517;PMS5003;61766;60.318;25.044;2023-05-10T14:55:02;9;9;
73517;PMS5003;61766;60.318;25.044;2023-05-10T14:57:27;9;9;
73517;PMS5003;61766;60.318;25.044;2023-05-10T14:59:53;8;8;
73517;PMS5003;61766;60.318;25.044;2023-05-10T15:02:19;10;10;
73517;PMS5003;61766;60.318;25.044;2023-05-10T15:04:45;8;7;
73517;PMS5003;61766;60.318;25.044;2023-05-10T15:07:10;11;11;
73517;PMS5003;61766;60.318;25.044;2023-05-10T15:09:36;10;10;
73517;PMS5003;61766;60.318;25.044;2023-05-10T15:12:02;9;9;
73517;PMS5003;61766;60.318;25.044;2023-05-10T15:14:27;10;10;
73517;PMS5003;61766;60.318;25.044;2023-05-10T15:16:53;9;8;
73517;PMS5003;61766;60.318;25.044;2023-05-10T15:19:19;9;9;
73517;PMS5003;61766;60.318;25.044;2023-05-10T15:21:45;9;8;
73517;PMS5003;61766;60.318;25.044;2023-05-10T15:24:10;7;7;
73517;PMS5003;61766;60.318;25.044;2023-05-10T15:26:36;8;7;
73517;PMS5003;61766;60.318;25.044;2023-05-10T15:29:02;9;8;
73517;PMS5003;61766;60.318;25.044;2023-05-10T15:31:28;8;8;
73517;PMS5003;61766;60.318;25.044;2023-05-10T15:33:55;8;8;
73517;PMS5003;61766;60.318;25.044;2023-05-10T15:36:19;9;9;
73517;PMS5003;61766;60.318;25.044;2023-05-10T15:38:44;7;7;
73517;PMS5003;61766;60.318;25.044;2023-05-10T15:41:10;6;6;
73517;PMS5003;61766;60.318;25.044;2023-05-10T15:43:36;7;7;
73517;PMS5003;61766;60.318;25.044;2023-05-10T15:46:01;9;9;
73517;PMS5003;61766;60.318;25.044;2023-05-10T15:48:27;10;9;
73517;PMS5003;61766;60.318;25.044;2023-05-10T15:50:53;7;7;
73517;PMS5003;61766;60.318;25.044;2023-05-10T15:53:18;10;10;
73517;PMS5003;61766;60.318;25.044;2023-05-10T15:55:44;9;8;
73517;PMS5003;61766;60.318;25.044;2023-05-10T15:58:10;9;9;
73517;PMS5003;61766;60.318;25.044;2023-05-10T16:00:36;8;8;
73517;PMS5003;61766;60.318;25.044;2023-05-10T16:03:01;10;9;
73517;PMS5003;61766;60.318;25.044;2023-05-10T16:05:27;8;7;
73517;PMS5003;61766;60.318;25.044;2023-05-10T16:07:52;10;8;
73517;PMS5003;61766;60.318;25.044;2023-05-10T16:10:18;8;8;
73517;PMS5003;61766;60.318;25.044;2023-05-10T16:12:44;8;8;